sensor_id;sensor_type;location;lat;lon;timestamp;pressure;altitude;pressure_sealevel;temperature;humidity
65553;BME280;52465;51.560;14.368;2022-12-07T00:00:28;99953.66;;;8.79;67.27
65553;BME280;52465;51.560;14.368;2022-12-07T00:02:54;99959.78;;;8.87;67.41
65553;BME280;52465;51.560;14.368;2022-12-07T00:05:19;99963.84;;;8.90;66.88
65553;BME280;52465;51.560;14.368;2022-12-07T00:07:45;99952.06;;;8.86;67.17
65553;BME280;52465;51.560;14.368;2022-12-07T00:10:10;99955.66;;;8.85;66.82
65553;BME280;52465;51.560;14.368;2022-12-07T00:12:36;99953.06;;;8.85;66.64
65553;BME280;52465;51.560;14.368;2022-12-07T00:15:01;99954.03;;;8.84;66.74
65553;BME280;52465;51.560;14.368;2022-12-07T00:17:26;99923.56;;;8.66;66.83
65553;BME280;52465;51.560;14.368;2022-12-07T00:19:51;99946.56;;;8.89;66.68
65553;BME280;52465;51.560;14.368;2022-12-07T00:22:17;99941.19;;;8.90;67.01
65553;BME280;52465;51.560;14.368;2022-12-07T00:24:42;99948.19;;;8.90;66.69
65553;BME280;52465;51.560;14.368;2022-12-07T00:27:07;99936.13;;;8.89;67.51
65553;BME280;52465;51.560;14.368;2022-12-07T00:29:32;99919.06;;;8.77;67.01
65553;BME280;52465;51.560;14.368;2022-12-07T00:32:01;99934.13;;;8.83;67.04
65553;BME280;52465;51.560;14.368;2022-12-07T00:34:26;99897.47;;;8.66;67.39
65553;BME280;52465;51.560;14.368;2022-12-07T00:36:52;99903.72;;;8.73;66.84
65553;BME280;52465;51.560;14.368;2022-12-07T00:39:17;99935.13;;;8.90;66.88
65553;BME280;52465;51.560;14.368;2022-12-07T00:41:42;99931.19;;;8.86;66.70
65553;BME280;52465;51.560;14.368;2022-12-07T00:44:08;99909.91;;;8.72;66.84
65553;BME280;52465;51.560;14.368;2022-12-07T00:46:33;99888.16;;;8.64;67.17
65553;BME280;52465;51.560;14.368;2022-12-07T00:49:02;99903.22;;;8.70;66.66
65553;BME280;52465;51.560;14.368;2022-12-07T00:51:27;99927.63;;;8.87;66.86
65553;BME280;52465;51.560;14.368;2022-12-07T00:53:53;99932.69;;;8.88;66.86
65553;BME280;52465;51.560;14.368;2022-12-07T00:56:22;99916.47;;;8.77;67.12
65553;BME280;52465;51.560;14.368;2022-12-07T00:58:59;99936.13;;;8.89;67.14
65553;BME280;52465;51.560;14.368;2022-12-07T01:01:26;99935.47;;;8.87;67.21
65553;BME280;52465;51.560;14.368;2022-12-07T01:03:52;99904.97;;;8.69;66.39
65553;BME280;52465;51.560;14.368;2022-12-07T01:06:19;99940.53;;;8.88;66.93
65553;BME280;52465;51.560;14.368;2022-12-07T01:08:45;99913.78;;;8.68;66.90
65553;BME280;52465;51.560;14.368;2022-12-07T01:11:14;99908.72;;;8.67;67.22
65553;BME280;52465;51.560;14.368;2022-12-07T01:13:40;99939.84;;;8.86;67.21
65553;BME280;52465;51.560;14.368;2022-12-07T01:16:06;99943.59;;;8.84;66.93
65553;BME280;52465;51.560;14.368;2022-12-07T01:18:34;99953.75;;;8.87;66.79
65553;BME280;52465;51.560;14.368;2022-12-07T01:21:05;99952.88;;;8.86;66.70
65553;BME280;52465;51.560;14.368;2022-12-07T01:23:31;99948.00;;;8.83;67.32
65553;BME280;52465;51.560;14.368;2022-12-07T01:25:58;99925.13;;;8.77;66.83
65553;BME280;52465;51.560;14.368;2022-12-07T01:28:24;99933.97;;;8.84;67.39
65553;BME280;52465;51.560;14.368;2022-12-07T01:31:07;99926.28;;;8.83;66.49
65553;BME280;52465;51.560;14.368;2022-12-07T01:33:36;99936.56;;;8.84;67.15
65553;BME280;52465;51.560;14.368;2022-12-07T01:36:05;99932.50;;;8.82;67.13
65553;BME280;52465;51.560;14.368;2022-12-07T01:38:32;99935.59;;;8.85;66.74
65553;BME280;52465;51.560;14.368;2022-12-07T01:40:59;99924.44;;;8.75;66.31
65553;BME280;52465;51.560;14.368;2022-12-07T01:43:26;99933.16;;;8.84;66.69
65553;BME280;52465;51.560;14.368;2022-12-07T01:45:52;99880.06;;;8.49;67.51
65553;BME280;52465;51.560;14.368;2022-12-07T01:48:21;99936.72;;;8.83;67.23
65553;BME280;52465;51.560;14.368;2022-12-07T01:50:49;99932.16;;;8.85;67.33
65553;BME280;52465;51.560;14.368;2022-12-07T01:53:16;99931.00;;;8.79;66.62
65553;BME280;52465;51.560;14.368;2022-12-07T01:55:45;99934.94;;;8.83;66.78
65553;BME280;52465;51.560;14.368;2022-12-07T01:58:12;99891.25;;;8.59;66.99
65553;BME280;52465;51.560;14.368;2022-12-07T02:00:38;99921.38;;;8.80;67.64
65553;BME280;52465;51.560;14.368;2022-12-07T02:03:09;99927.09;;;8.83;66.85
65553;BME280;52465;51.560;14.368;2022-12-07T02:05:38;99920.56;;;8.79;66.93
65553;BME280;52465;51.560;14.368;2022-12-07T02:08:05;99916.47;;;8.77;67.16
65553;BME280;52465;51.560;14.368;2022-12-07T02:10:31;99899.09;;;8.67;67.19
65553;BME280;52465;51.560;14.368;2022-12-07T02:13:01;99927.28;;;8.82;66.86
65553;BME280;52465;51.560;14.368;2022-12-07T02:18:32;99917.78;;;8.81;66.68
65553;BME280;52465;51.560;14.368;2022-12-07T02:21:12;99921.06;;;8.83;67.04
65553;BME280;52465;51.560;14.368;2022-12-07T02:29:23;99922.06;;;8.82;67.37
65553;BME280;52465;51.560;14.368;2022-12-07T02:32:00;99925.78;;;8.79;67.44
65553;BME280;52465;51.560;14.368;2022-12-07T02:34:38;99917.91;;;8.71;66.57
65553;BME280;52465;51.560;14.368;2022-12-07T02:37:13;99893.16;;;8.57;66.93
65553;BME280;52465;51.560;14.368;2022-12-07T02:42:35;99923.47;;;8.76;67.24
65553;BME280;52465;51.560;14.368;2022-12-07T02:45:02;99937.19;;;8.78;67.43
65553;BME280;52465;51.560;14.368;2022-12-07T02:47:31;99914.31;;;8.72;66.80
65553;BME280;52465;51.560;14.368;2022-12-07T02:49:58;99927.56;;;8.79;67.25
65553;BME280;52465;51.560;14.368;2022-12-07T02:52:24;99918.91;;;8.78;66.90
65553;BME280;52465;51.560;14.368;2022-12-07T02:54:49;99913.84;;;8.77;67.34
65553;BME280;52465;51.560;14.368;2022-12-07T02:57:42;99905.06;;;8.78;67.51
65553;BME280;52465;51.560;14.368;2022-12-07T03:00:20;99889.00;;;8.64;66.61
65553;BME280;52465;51.560;14.368;2022-12-07T03:03:00;99868.00;;;8.48;67.17
65553;BME280;52465;51.560;14.368;2022-12-07T03:19:02;99892.09;;;8.68;66.72
65553;BME280;52465;51.560;14.368;2022-12-07T03:21:36;99827.56;;;8.26;66.57
65553;BME280;52465;51.560;14.368;2022-12-07T03:24:09;99904.16;;;8.69;66.26
65553;BME280;52465;51.560;14.368;2022-12-07T03:26:38;99909.63;;;8.76;67.11
65553;BME280;52465;51.560;14.368;2022-12-07T03:29:13;99892.09;;;8.68;66.70
65553;BME280;52465;51.560;14.368;2022-12-07T03:31:43;99886.38;;;8.64;66.89
65553;BME280;52465;51.560;14.368;2022-12-07T03:34:15;99901.91;;;8.74;66.76
65553;BME280;52465;51.560;14.368;2022-12-07T03:36:44;99906.16;;;8.75;66.91
65553;BME280;52465;51.560;14.368;2022-12-07T03:39:26;99865.06;;;8.51;66.95
65553;BME280;52465;51.560;14.368;2022-12-07T03:41:59;99897.50;;;8.74;67.31
65553;BME280;52465;51.560;14.368;2022-12-07T03:44:27;99891.81;;;8.71;66.70
65553;BME280;52465;51.560;14.368;2022-12-07T03:47:11;99884.09;;;8.69;67.43
65553;BME280;52465;51.560;14.368;2022-12-07T03:49:50;99851.88;;;8.53;66.34
65553;BME280;52465;51.560;14.368;2022-12-07T03:52:27;99873.66;;;8.69;66.75
65553;BME280;52465;51.560;14.368;2022-12-07T03:55:06;99874.19;;;8.73;67.30
65553;BME280;52465;51.560;14.368;2022-12-07T03:57:34;99852.66;;;8.71;67.16
65553;BME280;52465;51.560;14.368;2022-12-07T04:00:03;99839.41;;;8.64;66.65
65553;BME280;52465;51.560;14.368;2022-12-07T04:02:29;99821.41;;;8.53;66.45
65553;BME280;52465;51.560;14.368;2022-12-07T04:04:55;99843.03;;;8.71;67.40
65553;BME280;52465;51.560;14.368;2022-12-07T04:07:21;99836.31;;;8.69;67.08
65553;BME280;52465;51.560;14.368;2022-12-07T04:09:47;99795.72;;;8.40;66.39
65553;BME280;52465;51.560;14.368;2022-12-07T04:12:13;99841.53;;;8.69;66.57
65553;BME280;52465;51.560;14.368;2022-12-07T04:14:38;99840.22;;;8.65;67.06
65553;BME280;52465;51.560;14.368;2022-12-07T04:17:03;99831.59;;;8.64;66.44
65553;BME280;52465;51.560;14.368;2022-12-07T04:19:31;99837.13;;;8.69;66.48
65553;BME280;52465;51.560;14.368;2022-12-07T04:21:58;99784.63;;;8.38;66.75
65553;BME280;52465;51.560;14.368;2022-12-07T04:24:24;99842.06;;;8.72;66.82
65553;BME280;52465;51.560;14.368;2022-12-07T04:26:50;99805.44;;;8.56;67.15
65553;BME280;52465;51.560;14.368;2022-12-07T04:29:16;99824.25;;;8.68;66.95
65553;BME280;52465;51.560;14.368;2022-12-07T04:31:41;99755.97;;;8.20;66.88
65553;BME280;52465;51.560;14.368;2022-12-07T04:34:07;99819.34;;;8.65;67.01
65553;BME280;52465;51.560;14.368;2022-12-07T04:36:33;99813.00;;;8.67;66.86
65553;BME280;52465;51.560;14.368;2022-12-07T04:38:59;99819.72;;;8.70;67.17
65553;BME280;52465;51.560;14.368;2022-12-07T04:41:25;99806.13;;;8.66;66.70
65553;BME280;52465;51.560;14.368;2022-12-07T04:43:55;99797.66;;;8.64;66.91
65553;BME280;52465;51.560;14.368;2022-12-07T04:46:21;99791.94;;;8.61;66.35
65553;BME280;52465;51.560;14.368;2022-12-07T04:48:47;99779.66;;;8.53;66.42
65553;BME280;52465;51.560;14.368;2022-12-07T04:51:20;99764.13;;;8.43;66.50
65553;BME280;52465;51.560;14.368;2022-12-07T04:53:45;99752.72;;;8.44;67.19
65553;BME280;52465;51.560;14.368;2022-12-07T04:56:11;99785.72;;;8.62;66.79
65553;BME280;52465;51.560;14.368;2022-12-07T04:58:36;99794.56;;;8.69;66.77
65553;BME280;52465;51.560;14.368;2022-12-07T05:01:02;99712.09;;;8.16;66.90
65553;BME280;52465;51.560;14.368;2022-12-07T05:03:30;99777.53;;;8.57;66.32
65553;BME280;52465;51.560;14.368;2022-12-07T05:05:56;99738.91;;;8.34;67.08
65553;BME280;52465;51.560;14.368;2022-12-07T05:08:21;99783.28;;;8.60;66.60
65553;BME280;52465;51.560;14.368;2022-12-07T05:10:48;99773.00;;;8.59;66.88
65553;BME280;52465;51.560;14.368;2022-12-07T05:13:14;99788.53;;;8.68;66.82
65553;BME280;52465;51.560;14.368;2022-12-07T05:15:40;99777.38;;;8.58;66.70
65553;BME280;52465;51.560;14.368;2022-12-07T05:18:05;99778.72;;;8.62;66.96
65553;BME280;52465;51.560;14.368;2022-12-07T05:20:30;99782.81;;;8.65;66.78
65553;BME280;52465;51.560;14.368;2022-12-07T05:22:56;99751.44;;;8.48;67.02
65553;BME280;52465;51.560;14.368;2022-12-07T05:25:23;99774.31;;;8.63;66.94
65553;BME280;52465;51.560;14.368;2022-12-07T05:27:48;99748.94;;;8.47;66.63
65553;BME280;52465;51.560;14.368;2022-12-07T05:30:14;99770.88;;;8.62;66.43
65553;BME280;52465;51.560;14.368;2022-12-07T05:32:39;99733.28;;;8.39;66.71
65553;BME280;52465;51.560;14.368;2022-12-07T05:35:05;99766.81;;;8.60;66.75
65553;BME280;52465;51.560;14.368;2022-12-07T05:37:30;99773.50;;;8.62;66.84
65553;BME280;52465;51.560;14.368;2022-12-07T05:39:55;99731.31;;;8.41;67.03
65553;BME280;52465;51.560;14.368;2022-12-07T05:42:21;99774.81;;;8.66;66.66
65553;BME280;52465;51.560;14.368;2022-12-07T05:44:46;99752.78;;;8.61;66.67
65553;BME280;52465;51.560;14.368;2022-12-07T05:47:13;99758.53;;;8.64;67.10
65553;BME280;52465;51.560;14.368;2022-12-07T05:49:39;99750.47;;;8.58;66.72
65553;BME280;52465;51.560;14.368;2022-12-07T05:52:04;99748.69;;;8.58;67.33
65553;BME280;52465;51.560;14.368;2022-12-07T05:54:30;99679.38;;;8.21;66.88
65553;BME280;52465;51.560;14.368;2022-12-07T05:56:55;99751.50;;;8.65;66.46
65553;BME280;52465;51.560;14.368;2022-12-07T05:59:22;99738.94;;;8.60;66.75
65553;BME280;52465;51.560;14.368;2022-12-07T06:01:54;99742.50;;;8.59;66.65
65553;BME280;52465;51.560;14.368;2022-12-07T06:04:20;99738.41;;;8.57;66.67
65553;BME280;52465;51.560;14.368;2022-12-07T06:06:46;99740.84;;;8.58;66.67
65553;BME280;52465;51.560;14.368;2022-12-07T06:09:12;99749.03;;;8.63;66.54
65553;BME280;52465;51.560;14.368;2022-12-07T06:11:39;99740.22;;;8.56;66.81
65553;BME280;52465;51.560;14.368;2022-12-07T06:14:23;99729.94;;;8.55;66.83
65553;BME280;52465;51.560;14.368;2022-12-07T06:16:49;99676.25;;;8.18;66.56
65553;BME280;52465;51.560;14.368;2022-12-07T06:19:15;99700.50;;;8.36;67.15
65553;BME280;52465;51.560;14.368;2022-12-07T06:21:43;99745.63;;;8.63;66.84
65553;BME280;52465;51.560;14.368;2022-12-07T06:24:11;99740.84;;;8.58;66.62
65553;BME280;52465;51.560;14.368;2022-12-07T06:26:37;99750.81;;;8.63;66.98
65553;BME280;52465;51.560;14.368;2022-12-07T06:29:02;99725.53;;;8.55;66.81
65553;BME280;52465;51.560;14.368;2022-12-07T06:31:28;99727.31;;;8.55;66.66
65553;BME280;52465;51.560;14.368;2022-12-07T06:33:58;99713.13;;;8.49;66.75
65553;BME280;52465;51.560;14.368;2022-12-07T06:36:26;99726.19;;;8.57;66.71
65553;BME280;52465;51.560;14.368;2022-12-07T06:38:52;99710.50;;;8.49;66.89
65553;BME280;52465;51.560;14.368;2022-12-07T06:41:18;99719.97;;;8.58;66.87
65553;BME280;52465;51.560;14.368;2022-12-07T06:43:43;99727.00;;;8.58;67.00
65553;BME280;52465;51.560;14.368;2022-12-07T06:46:08;99728.50;;;8.60;66.51
65553;BME280;52465;51.560;14.368;2022-12-07T06:48:34;99728.66;;;8.59;66.62
65553;BME280;52465;51.560;14.368;2022-12-07T06:50:59;99692.78;;;8.35;66.39
65553;BME280;52465;51.560;14.368;2022-12-07T06:53:27;99716.06;;;8.54;66.33
65553;BME280;52465;51.560;14.368;2022-12-07T06:55:52;99730.94;;;8.62;66.55
65553;BME280;52465;51.560;14.368;2022-12-07T06:58:18;99714.44;;;8.53;66.70
65553;BME280;52465;51.560;14.368;2022-12-07T07:00:44;99720.63;;;8.52;66.33
65553;BME280;52465;51.560;14.368;2022-12-07T07:03:09;99710.50;;;8.49;66.89
65553;BME280;52465;51.560;14.368;2022-12-07T07:05:35;99724.09;;;8.61;66.59
65553;BME280;52465;51.560;14.368;2022-12-07T07:08:01;99717.19;;;8.52;66.42
65553;BME280;52465;51.560;14.368;2022-12-07T07:10:26;99703.78;;;8.46;66.82
65553;BME280;52465;51.560;14.368;2022-12-07T07:12:51;99671.56;;;8.21;66.39
65553;BME280;52465;51.560;14.368;2022-12-07T07:15:17;99687.56;;;8.35;66.66
65553;BME280;52465;51.560;14.368;2022-12-07T07:17:43;99642.31;;;8.10;66.55
65553;BME280;52465;51.560;14.368;2022-12-07T07:20:09;99725.38;;;8.57;66.59
65553;BME280;52465;51.560;14.368;2022-12-07T07:22:34;99714.44;;;8.53;66.68
65553;BME280;52465;51.560;14.368;2022-12-07T07:24:59;99705.91;;;8.43;66.60
65553;BME280;52465;51.560;14.368;2022-12-07T07:27:25;99718.53;;;8.56;66.47
65553;BME280;52465;51.560;14.368;2022-12-07T07:29:50;99658.31;;;8.15;66.66
65553;BME280;52465;51.560;14.368;2022-12-07T07:32:16;99690.72;;;8.38;66.79
65553;BME280;52465;51.560;14.368;2022-12-07T07:34:41;99713.59;;;8.53;66.77
65553;BME280;52465;51.560;14.368;2022-12-07T07:37:06;99701.34;;;8.45;66.91
65553;BME280;52465;51.560;14.368;2022-12-07T07:39:33;99700.84;;;8.41;66.52
65553;BME280;52465;51.560;14.368;2022-12-07T07:41:58;99728.78;;;8.57;66.55
65553;BME280;52465;51.560;14.368;2022-12-07T07:44:24;99669.59;;;8.23;67.12
65553;BME280;52465;51.560;14.368;2022-12-07T07:46:49;99724.38;;;8.58;66.63
65553;BME280;52465;51.560;14.368;2022-12-07T07:49:14;99719.16;;;8.58;66.82
65553;BME280;52465;51.560;14.368;2022-12-07T07:51:39;99650.50;;;8.15;66.94
65553;BME280;52465;51.560;14.368;2022-12-07T07:54:05;99715.72;;;8.49;66.97
65553;BME280;52465;51.560;14.368;2022-12-07T07:56:30;99701.34;;;8.45;66.60
65553;BME280;52465;51.560;14.368;2022-12-07T07:58:56;99700.06;;;8.49;66.06
65553;BME280;52465;51.560;14.368;2022-12-07T08:01:21;99710.69;;;8.56;66.65
65553;BME280;52465;51.560;14.368;2022-12-07T08:03:47;99707.22;;;8.47;67.07
65553;BME280;52465;51.560;14.368;2022-12-07T08:06:12;99721.13;;;8.56;67.02
65553;BME280;52465;51.560;14.368;2022-12-07T08:08:37;99719.50;;;8.55;66.81
65553;BME280;52465;51.560;14.368;2022-12-07T08:11:07;99714.75;;;8.58;66.42
65553;BME280;52465;51.560;14.368;2022-12-07T08:13:33;99722.75;;;8.57;66.62
65553;BME280;52465;51.560;14.368;2022-12-07T08:15:58;99721.94;;;8.56;66.64
65553;BME280;52465;51.560;14.368;2022-12-07T08:18:28;99702.97;;;8.46;66.51
65553;BME280;52465;51.560;14.368;2022-12-07T08:20:59;99719.78;;;8.52;66.63
65553;BME280;52465;51.560;14.368;2022-12-07T08:23:24;99722.06;;;8.46;66.48
65553;BME280;52465;51.560;14.368;2022-12-07T08:25:50;99702.16;;;8.37;66.61
65553;BME280;52465;51.560;14.368;2022-12-07T08:28:15;99695.84;;;8.30;66.95
65553;BME280;52465;51.560;14.368;2022-12-07T08:30:40;99717.00;;;8.45;66.77
65553;BME280;52465;51.560;14.368;2022-12-07T08:33:06;99711.44;;;8.40;66.73
65553;BME280;52465;51.560;14.368;2022-12-07T08:35:33;99714.56;;;8.43;66.96
65553;BME280;52465;51.560;14.368;2022-12-07T08:37:58;99710.22;;;8.34;66.45
65553;BME280;52465;51.560;14.368;2022-12-07T08:40:23;99721.88;;;8.40;66.52
65553;BME280;52465;51.560;14.368;2022-12-07T08:42:49;99725.00;;;8.43;66.56
65553;BME280;52465;51.560;14.368;2022-12-07T08:45:16;99722.84;;;8.39;66.17
65553;BME280;52465;51.560;14.368;2022-12-07T08:48:00;99699.44;;;8.29;67.04
65553;BME280;52465;51.560;14.368;2022-12-07T08:50:27;99679.03;;;8.16;66.54
65553;BME280;52465;51.560;14.368;2022-12-07T08:52:56;99690.63;;;8.22;66.78
65553;BME280;52465;51.560;14.368;2022-12-07T08:55:23;99704.66;;;8.29;65.71
65553;BME280;52465;51.560;14.368;2022-12-07T08:57:48;99678.38;;;8.14;66.20
65553;BME280;52465;51.560;14.368;2022-12-07T09:00:14;99695.53;;;8.25;66.63
65553;BME280;52465;51.560;14.368;2022-12-07T09:02:43;99710.22;;;8.34;66.10
65553;BME280;52465;51.560;14.368;2022-12-07T09:05:08;99711.75;;;8.37;65.92
65553;BME280;52465;51.560;14.368;2022-12-07T09:07:34;99716.47;;;8.41;66.12
65553;BME280;52465;51.560;14.368;2022-12-07T09:10:00;99700.78;;;8.33;66.21
65553;BME280;52465;51.560;14.368;2022-12-07T09:12:26;99723.50;;;8.41;66.32
65553;BME280;52465;51.560;14.368;2022-12-07T09:14:51;99706.00;;;8.33;65.88
65553;BME280;52465;51.560;14.368;2022-12-07T09:17:16;99711.94;;;8.43;66.20
65553;BME280;52465;51.560;14.368;2022-12-07T09:19:42;99666.44;;;8.12;66.09
65553;BME280;52465;51.560;14.368;2022-12-07T09:22:08;99721.41;;;8.44;66.42
65553;BME280;52465;51.560;14.368;2022-12-07T09:24:36;99716.84;;;8.46;65.72
65553;BME280;52465;51.560;14.368;2022-12-07T09:27:02;99706.22;;;8.40;65.77
65553;BME280;52465;51.560;14.368;2022-12-07T09:29:27;99673.28;;;8.13;66.17
65553;BME280;52465;51.560;14.368;2022-12-07T09:31:52;99710.63;;;8.39;66.83
65553;BME280;52465;51.560;14.368;2022-12-07T09:34:18;99721.09;;;8.47;66.36
65553;BME280;52465;51.560;14.368;2022-12-07T09:36:43;99712.44;;;8.47;66.06
65553;BME280;52465;51.560;14.368;2022-12-07T09:39:09;99689.19;;;8.28;66.31
65553;BME280;52465;51.560;14.368;2022-12-07T09:41:38;99693.13;;;8.32;66.14
65553;BME280;52465;51.560;14.368;2022-12-07T09:44:09;99711.94;;;8.43;66.46
65553;BME280;52465;51.560;14.368;2022-12-07T09:46:41;99702.78;;;8.39;66.17
65553;BME280;52465;51.560;14.368;2022-12-07T09:49:21;99716.69;;;8.48;66.59
65553;BME280;52465;51.560;14.368;2022-12-07T09:51:47;99699.06;;;8.42;65.45
65553;BME280;52465;51.560;14.368;2022-12-07T09:54:23;99676.13;;;8.28;65.92
65553;BME280;52465;51.560;14.368;2022-12-07T09:56:49;99680.06;;;8.32;65.99
65553;BME280;52465;51.560;14.368;2022-12-07T09:59:17;99705.44;;;8.47;66.17
65553;BME280;52465;51.560;14.368;2022-12-07T10:01:45;99696.59;;;8.40;65.95
65553;BME280;52465;51.560;14.368;2022-12-07T10:04:16;99684.88;;;8.36;65.90
65553;BME280;52465;51.560;14.368;2022-12-07T10:06:43;99706.91;;;8.50;66.25
65553;BME280;52465;51.560;14.368;2022-12-07T10:09:13;99667.97;;;8.22;66.27
65553;BME280;52465;51.560;14.368;2022-12-07T10:12:02;99694.84;;;8.49;65.95
65553;BME280;52465;51.560;14.368;2022-12-07T10:14:29;99698.22;;;8.41;66.18
65553;BME280;52465;51.560;14.368;2022-12-07T10:16:55;99680.06;;;8.32;66.39
65553;BME280;52465;51.560;14.368;2022-12-07T10:19:28;99700.06;;;8.49;65.95
65553;BME280;52465;51.560;14.368;2022-12-07T10:24:27;99681.47;;;8.44;66.32
65553;BME280;52465;51.560;14.368;2022-12-07T10:26:53;99692.06;;;8.42;66.11
65553;BME280;52465;51.560;14.368;2022-12-07T10:29:22;99689.59;;;8.41;65.93
65553;BME280;52465;51.560;14.368;2022-12-07T10:31:59;99684.38;;;8.41;66.06
65553;BME280;52465;51.560;14.368;2022-12-07T10:34:36;99687.97;;;8.40;65.81
65553;BME280;52465;51.560;14.368;2022-12-07T10:39:53;99680.28;;;8.38;65.66
65553;BME280;52465;51.560;14.368;2022-12-07T10:42:27;99697.28;;;8.51;66.31
65553;BME280;52465;51.560;14.368;2022-12-07T10:45:13;99692.41;;;8.47;65.80
65553;BME280;52465;51.560;14.368;2022-12-07T10:48:12;99697.47;;;8.49;65.69
65553;BME280;52465;51.560;14.368;2022-12-07T10:51:08;99700.88;;;8.50;66.08
65553;BME280;52465;51.560;14.368;2022-12-07T10:56:09;99696.47;;;8.50;66.28
65553;BME280;52465;51.560;14.368;2022-12-07T10:59:16;99695.97;;;8.46;65.91
65553;BME280;52465;51.560;14.368;2022-12-07T11:01:51;99702.50;;;8.51;65.41
65553;BME280;52465;51.560;14.368;2022-12-07T11:15:07;99681.97;;;8.47;65.87
65553;BME280;52465;51.560;14.368;2022-12-07T11:18:04;99692.09;;;8.51;65.78
65553;BME280;52465;51.560;14.368;2022-12-07T11:26:08;99679.16;;;8.41;65.54
65553;BME280;52465;51.560;14.368;2022-12-07T11:28:57;99678.53;;;8.47;65.78
65553;BME280;52465;51.560;14.368;2022-12-07T11:34:39;99682.63;;;8.50;65.67
65553;BME280;52465;51.560;14.368;2022-12-07T11:37:09;99680.03;;;8.50;65.74
65553;BME280;52465;51.560;14.368;2022-12-07T11:39:44;99665.81;;;8.44;65.49
65553;BME280;52465;51.560;14.368;2022-12-07T11:42:22;99679.03;;;8.51;65.69
65553;BME280;52465;51.560;14.368;2022-12-07T11:45:02;99675.91;;;8.47;65.64
65553;BME280;52465;51.560;14.368;2022-12-07T11:52:58;99665.81;;;8.44;65.60
65553;BME280;52465;51.560;14.368;2022-12-07T12:03:44;99685.06;;;8.51;66.01
65553;BME280;52465;51.560;14.368;2022-12-07T12:06:10;99685.69;;;8.45;65.57
65553;BME280;52465;51.560;14.368;2022-12-07T12:08:43;99678.22;;;8.50;65.37
65553;BME280;52465;51.560;14.368;2022-12-07T12:17:19;99676.25;;;8.52;65.27
65553;BME280;52465;51.560;14.368;2022-12-07T12:20:03;99671.22;;;8.51;65.79
65553;BME280;52465;51.560;14.368;2022-12-07T12:22:41;99653.25;;;8.39;66.24
65553;BME280;52465;51.560;14.368;2022-12-07T12:25:22;99668.25;;;8.45;65.47
65553;BME280;52465;51.560;14.368;2022-12-07T12:27:56;99676.25;;;8.52;65.55
65553;BME280;52465;51.560;14.368;2022-12-07T12:32:51;99670.09;;;8.53;65.65
65553;BME280;52465;51.560;14.368;2022-12-07T12:37:48;99630.00;;;8.28;65.66
65553;BME280;52465;51.560;14.368;2022-12-07T12:42:47;99650.69;;;8.47;65.83
65553;BME280;52465;51.560;14.368;2022-12-07T12:50:40;99670.09;;;8.53;65.61
65553;BME280;52465;51.560;14.368;2022-12-07T12:53:20;99663.56;;;8.49;65.49
65553;BME280;52465;51.560;14.368;2022-12-07T12:58:29;99674.34;;;8.54;66.27
65553;BME280;52465;51.560;14.368;2022-12-07T13:01:48;99671.72;;;8.54;65.68
65553;BME280;52465;51.560;14.368;2022-12-07T13:06:51;99672.53;;;8.55;65.85
65553;BME280;52465;51.560;14.368;2022-12-07T13:09:25;99665.66;;;8.45;65.79
65553;BME280;52465;51.560;14.368;2022-12-07T13:12:00;99672.53;;;8.55;65.65
65553;BME280;52465;51.560;14.368;2022-12-07T13:14:55;99670.41;;;8.58;65.03
65553;BME280;52465;51.560;14.368;2022-12-07T13:27:48;99638.97;;;8.60;64.76
65553;BME280;52465;51.560;14.368;2022-12-07T13:30:19;99664.94;;;8.86;65.69
65553;BME280;52465;51.560;14.368;2022-12-07T13:35:34;99597.34;;;8.58;65.28
65553;BME280;52465;51.560;14.368;2022-12-07T13:38:02;99649.31;;;8.94;65.15
65553;BME280;52465;51.560;14.368;2022-12-07T13:40:30;99660.91;;;8.99;65.01
65553;BME280;52465;51.560;14.368;2022-12-07T13:42:59;99652.91;;;8.93;65.01
65553;BME280;52465;51.560;14.368;2022-12-07T13:45:30;99663.69;;;9.06;64.95
65553;BME280;52465;51.560;14.368;2022-12-07T13:50:40;99646.69;;;9.02;65.10
65553;BME280;52465;51.560;14.368;2022-12-07T13:53:12;99661.41;;;9.11;64.87
65553;BME280;52465;51.560;14.368;2022-12-07T13:55:44;99623.84;;;8.96;65.07
65553;BME280;52465;51.560;14.368;2022-12-07T13:58:10;99625.81;;;9.02;64.66
65553;BME280;52465;51.560;14.368;2022-12-07T14:00:35;99640.19;;;9.14;64.62
65553;BME280;52465;51.560;14.368;2022-12-07T14:03:03;99654.38;;;9.20;64.77
65553;BME280;52465;51.560;14.368;2022-12-07T14:05:33;99614.09;;;8.98;64.50
65553;BME280;52465;51.560;14.368;2022-12-07T14:08:05;99647.72;;;9.17;64.96
65553;BME280;52465;51.560;14.368;2022-12-07T14:10:36;99646.88;;;9.17;65.16
65553;BME280;52465;51.560;14.368;2022-12-07T14:13:20;99589.91;;;8.80;64.55
65553;BME280;52465;51.560;14.368;2022-12-07T14:15:51;99662.72;;;9.23;64.94
65553;BME280;52465;51.560;14.368;2022-12-07T14:18:36;99655.06;;;9.22;65.20
65553;BME280;52465;51.560;14.368;2022-12-07T14:23:34;99648.03;;;9.22;64.52
65553;BME280;52465;51.560;14.368;2022-12-07T14:26:06;99649.34;;;9.26;65.37
65553;BME280;52465;51.560;14.368;2022-12-07T14:28:34;99649.34;;;9.26;64.86
65553;BME280;52465;51.560;14.368;2022-12-07T14:31:01;99638.72;;;9.20;65.28
65553;BME280;52465;51.560;14.368;2022-12-07T14:33:27;99631.22;;;9.17;64.53
65553;BME280;52465;51.560;14.368;2022-12-07T14:35:52;99652.59;;;9.28;65.12
65553;BME280;52465;51.560;14.368;2022-12-07T14:38:22;99620.63;;;9.10;64.95
65553;BME280;52465;51.560;14.368;2022-12-07T14:40:48;99643.47;;;9.24;64.92
65553;BME280;52465;51.560;14.368;2022-12-07T14:43:17;99635.47;;;9.18;64.91
65553;BME280;52465;51.560;14.368;2022-12-07T14:45:44;99653.59;;;9.27;64.96
65553;BME280;52465;51.560;14.368;2022-12-07T14:48:12;99607.53;;;9.02;65.25
65553;BME280;52465;51.560;14.368;2022-12-07T14:50:42;99642.34;;;9.27;64.80
65553;BME280;52465;51.560;14.368;2022-12-07T14:53:15;99657.53;;;9.32;65.31
65553;BME280;52465;51.560;14.368;2022-12-07T14:55:41;99650.00;;;9.28;65.05
65553;BME280;52465;51.560;14.368;2022-12-07T14:58:12;99595.16;;;8.88;64.45